createdAt,value
2024-05-09T00:00:01.273Z,1024.72
2024-05-09T00:01:01.308Z,1024.73
2024-05-09T00:02:01.253Z,1024.75
2024-05-09T00:03:01.274Z,1024.73
2024-05-09T00:04:01.266Z,1024.68
2024-05-09T00:05:01.341Z,1024.70
2024-05-09T00:06:01.432Z,1024.68
2024-05-09T00:07:01.176Z,1024.71
2024-05-09T00:08:01.356Z,1024.70
2024-05-09T00:09:01.163Z,1024.68
2024-05-09T00:10:01.165Z,1024.70
2024-05-09T00:11:01.241Z,1024.72
2024-05-09T00:12:01.285Z,1024.71
2024-05-09T00:13:01.129Z,1024.75
2024-05-09T00:14:01.157Z,1024.73
2024-05-09T00:15:01.104Z,1024.70
2024-05-09T00:16:01.076Z,1024.75
2024-05-09T00:17:01.144Z,1024.74
2024-05-09T00:18:01.730Z,1024.72
2024-05-09T00:19:01.119Z,1024.71
2024-05-09T00:20:01.099Z,1024.70
2024-05-09T00:21:01.180Z,1024.66
2024-05-09T00:22:01.000Z,1024.67
2024-05-09T00:23:01.061Z,1024.67
2024-05-09T00:24:00.983Z,1024.63
2024-05-09T00:25:00.974Z,1024.64
2024-05-09T00:26:01.074Z,1024.64
2024-05-09T00:27:00.984Z,1024.64
2024-05-09T00:28:00.988Z,1024.61
2024-05-09T00:29:00.969Z,1024.60
2024-05-09T00:30:00.916Z,1024.62
2024-05-09T00:31:00.905Z,1024.63
2024-05-09T00:32:01.047Z,1024.60
2024-05-09T00:33:01.162Z,1024.62
2024-05-09T00:34:01.188Z,1024.58
2024-05-09T00:35:00.899Z,1024.59
2024-05-09T00:36:00.857Z,1024.61
2024-05-09T00:37:00.847Z,1024.60
2024-05-09T00:38:01.338Z,1024.63
2024-05-09T00:39:00.821Z,1024.60
2024-05-09T00:40:00.816Z,1024.59
2024-05-09T00:41:00.999Z,1024.61
2024-05-09T00:42:00.790Z,1024.56
2024-05-09T00:43:00.794Z,1024.56
2024-05-09T00:44:00.784Z,1024.59
2024-05-09T00:45:00.760Z,1024.58
2024-05-09T00:46:00.749Z,1024.57
2024-05-09T00:47:00.809Z,1024.60
2024-05-09T00:48:01.107Z,1024.59
2024-05-09T00:49:00.834Z,1024.65
2024-05-09T00:50:00.740Z,1024.63
2024-05-09T00:51:00.848Z,1024.65
2024-05-09T00:52:00.688Z,1024.64
2024-05-09T00:53:00.800Z,1024.67
2024-05-09T00:54:00.675Z,1024.64
2024-05-09T00:55:00.689Z,1024.71
2024-05-09T00:56:00.749Z,1024.69
2024-05-09T00:57:00.619Z,1024.68
2024-05-09T00:58:00.629Z,1024.66
2024-05-09T00:59:00.661Z,1024.67
2024-05-09T01:00:00.630Z,1024.69
2024-05-09T01:01:00.691Z,1024.66
2024-05-09T01:02:00.639Z,1024.65
2024-05-09T01:03:00.704Z,1024.61
2024-05-09T01:04:00.659Z,1024.64
2024-05-09T01:05:00.685Z,1024.64
2024-05-09T01:06:00.562Z,1024.60
2024-05-09T01:07:00.534Z,1024.59
2024-05-09T01:08:00.590Z,1024.59
2024-05-09T01:09:00.486Z,1024.60
2024-05-09T01:10:00.503Z,1024.57
2024-05-09T01:11:00.594Z,1024.56
2024-05-09T01:12:00.627Z,1024.54
2024-05-09T01:13:00.463Z,1024.60
2024-05-09T01:14:00.481Z,1024.58
2024-05-09T01:15:00.429Z,1024.56
2024-05-09T01:16:00.411Z,1024.58
2024-05-09T01:17:00.420Z,1024.61
2024-05-09T01:18:00.649Z,1024.55
2024-05-09T01:19:00.413Z,1024.54
2024-05-09T01:20:00.414Z,1024.58
2024-05-09T01:21:00.406Z,1024.55
2024-05-09T01:22:00.348Z,1024.54
2024-05-09T01:23:00.383Z,1024.53
2024-05-09T01:24:00.337Z,1024.53
2024-05-09T01:25:00.313Z,1024.53
2024-05-09T01:26:00.450Z,1024.54
2024-05-09T01:27:00.320Z,1024.51
2024-05-09T01:28:00.307Z,1024.48
2024-05-09T01:29:00.346Z,1024.52
2024-05-09T01:30:00.345Z,1024.49
2024-05-09T01:31:00.249Z,1024.47
2024-05-09T01:32:00.349Z,1024.44
2024-05-09T01:33:00.340Z,1024.45
2024-05-09T01:34:00.371Z,1024.41
2024-05-09T01:35:00.286Z,1024.41
2024-05-09T01:36:00.203Z,1024.39
2024-05-09T01:37:00.179Z,1024.36
2024-05-09T01:38:00.231Z,1024.39
2024-05-09T01:39:00.171Z,1024.39
2024-05-09T01:40:00.155Z,1024.35
2024-05-09T01:41:00.192Z,1024.37
2024-05-09T01:42:00.130Z,1024.34
2024-05-09T01:43:00.126Z,1024.36
2024-05-09T01:44:00.193Z,1024.35
2024-05-09T01:45:00.145Z,1024.36
2024-05-09T01:46:00.083Z,1024.36
2024-05-09T01:47:00.116Z,1024.34
2024-05-09T01:48:00.466Z,1024.36
2024-05-09T01:49:00.179Z,1024.37
2024-05-09T01:50:00.061Z,1024.39
2024-05-09T01:51:00.051Z,1024.36
2024-05-09T01:52:00.031Z,1024.37
2024-05-09T01:53:00.032Z,1024.41
2024-05-09T01:53:59.989Z,1024.43
2024-05-09T01:55:02.775Z,1024.38
2024-05-09T01:55:59.989Z,1024.38
2024-05-09T01:56:59.973Z,1024.42
2024-05-09T01:57:59.945Z,1024.41
2024-05-09T01:58:59.972Z,1024.34
2024-05-09T01:59:59.940Z,1024.36
2024-05-09T02:00:59.951Z,1024.35
2024-05-09T02:02:00.125Z,1024.36
2024-05-09T02:03:00.074Z,1024.36
2024-05-09T02:04:00.121Z,1024.37
2024-05-09T02:04:59.998Z,1024.41
2024-05-09T02:05:59.907Z,1024.39
2024-05-09T02:06:59.867Z,1024.37
2024-05-09T02:07:59.869Z,1024.37
2024-05-09T02:08:59.829Z,1024.43
2024-05-09T02:09:59.813Z,1024.38
2024-05-09T02:10:59.907Z,1024.44
2024-05-09T02:11:59.885Z,1024.41
2024-05-09T02:12:59.785Z,1024.41
2024-05-09T02:13:59.786Z,1024.42
2024-05-09T02:14:59.774Z,1024.43
2024-05-09T02:15:59.766Z,1024.37
2024-05-09T02:16:59.759Z,1024.42
2024-05-09T02:17:59.857Z,1024.41
2024-05-09T02:18:59.834Z,1024.43
2024-05-09T02:19:59.765Z,1024.42
2024-05-09T02:20:59.899Z,1024.44
2024-05-09T02:21:59.691Z,1024.43
2024-05-09T02:22:59.751Z,1024.43
2024-05-09T02:23:59.668Z,1024.41
2024-05-09T02:24:59.677Z,1024.46
2024-05-09T02:25:59.684Z,1024.44
2024-05-09T02:26:59.628Z,1024.46
2024-05-09T02:27:59.726Z,1024.46
2024-05-09T02:28:59.686Z,1024.45
2024-05-09T02:29:59.623Z,1024.45
2024-05-09T02:30:59.585Z,1024.39
2024-05-09T02:31:59.619Z,1024.41
2024-05-09T02:32:59.693Z,1024.45
2024-05-09T02:33:59.653Z,1024.47
2024-05-09T02:34:59.648Z,1024.47
2024-05-09T02:35:59.539Z,1024.45
2024-05-09T02:36:59.528Z,1024.46
2024-05-09T02:37:59.902Z,1024.46
2024-05-09T02:38:59.516Z,1024.48
2024-05-09T02:39:59.517Z,1024.45
2024-05-09T02:40:59.538Z,1024.47
2024-05-09T02:41:59.472Z,1024.45
2024-05-09T02:42:59.472Z,1024.40
2024-05-09T02:43:59.519Z,1024.41
2024-05-09T02:44:59.436Z,1024.41
2024-05-09T02:45:59.429Z,1024.37
2024-05-09T02:46:59.432Z,1024.39
2024-05-09T02:47:59.682Z,1024.38
2024-05-09T02:48:59.487Z,1024.33
2024-05-09T02:49:59.474Z,1024.32
2024-05-09T02:50:59.437Z,1024.34
2024-05-09T02:51:59.367Z,1024.32
2024-05-09T02:52:59.392Z,1024.38
2024-05-09T02:53:59.351Z,1024.38
2024-05-09T02:54:59.327Z,1024.34
2024-05-09T02:55:59.376Z,1024.34
2024-05-09T02:56:59.303Z,1024.31
2024-05-09T02:57:59.442Z,1024.33
2024-05-09T02:58:59.298Z,1024.30
2024-05-09T02:59:59.278Z,1024.28
2024-05-09T03:00:59.277Z,1024.29
2024-05-09T03:01:59.356Z,1024.26
2024-05-09T03:02:59.447Z,1024.25
2024-05-09T03:03:59.346Z,1024.27
2024-05-09T03:04:59.289Z,1024.25
2024-05-09T03:05:59.211Z,1024.23
2024-05-09T03:06:59.217Z,1024.23
2024-05-09T03:07:59.306Z,1024.21
2024-05-09T03:08:59.178Z,1024.17
2024-05-09T03:09:59.172Z,1024.21
2024-05-09T03:10:59.171Z,1024.22
2024-05-09T03:11:59.314Z,1024.21
2024-05-09T03:12:59.130Z,1024.25
2024-05-09T03:13:59.152Z,1024.26
2024-05-09T03:14:59.112Z,1024.22
2024-05-09T03:15:59.169Z,1024.27
2024-05-09T03:16:59.122Z,1024.26
2024-05-09T03:17:59.218Z,1024.29
2024-05-09T03:18:59.081Z,1024.28
2024-05-09T03:19:59.096Z,1024.29
2024-05-09T03:20:59.064Z,1024.29
2024-05-09T03:21:59.047Z,1024.27
2024-05-09T03:22:59.063Z,1024.28
2024-05-09T03:23:59.028Z,1024.25
2024-05-09T03:24:59.004Z,1024.25
2024-05-09T03:25:59.030Z,1024.24
2024-05-09T03:26:58.982Z,1024.25
2024-05-09T03:27:58.971Z,1024.26
2024-05-09T03:28:58.965Z,1024.26
2024-05-09T03:29:58.965Z,1024.26
2024-05-09T03:30:58.958Z,1024.27
2024-05-09T03:31:59.012Z,1024.30
2024-05-09T03:32:59.019Z,1024.28
2024-05-09T03:33:59.055Z,1024.29
2024-05-09T03:34:58.920Z,1024.29
2024-05-09T03:35:58.904Z,1024.28
2024-05-09T03:36:58.894Z,1024.28
2024-05-09T03:37:58.886Z,1024.27
2024-05-09T03:38:58.851Z,1024.29
2024-05-09T03:39:58.856Z,1024.29
2024-05-09T03:40:58.859Z,1024.31
2024-05-09T03:41:58.856Z,1024.31
2024-05-09T03:42:58.935Z,1024.33
2024-05-09T03:43:58.816Z,1024.30
2024-05-09T03:44:58.804Z,1024.31
2024-05-09T03:45:58.785Z,1024.30
2024-05-09T03:46:58.832Z,1024.30
2024-05-09T03:47:59.086Z,1024.28
2024-05-09T03:48:58.785Z,1024.32
2024-05-09T03:49:58.794Z,1024.27
2024-05-09T03:50:58.750Z,1024.31
2024-05-09T03:51:58.715Z,1024.27
2024-05-09T03:52:58.723Z,1024.34
2024-05-09T03:53:58.711Z,1024.33
2024-05-09T03:54:58.682Z,1024.33
2024-05-09T03:55:58.707Z,1024.32
2024-05-09T03:56:58.663Z,1024.33
2024-05-09T03:57:58.744Z,1024.31
2024-05-09T03:58:58.674Z,1024.36
2024-05-09T03:59:58.640Z,1024.35
2024-05-09T04:00:58.688Z,1024.34
2024-05-09T04:01:58.668Z,1024.30
2024-05-09T04:02:58.744Z,1024.33
2024-05-09T04:03:58.595Z,1024.31
2024-05-09T04:04:58.601Z,1024.34
2024-05-09T04:05:58.570Z,1024.32
2024-05-09T04:06:58.556Z,1024.32
2024-05-09T04:07:58.684Z,1024.34
2024-05-09T04:08:58.525Z,1024.31
2024-05-09T04:09:58.519Z,1024.32
2024-05-09T04:10:58.527Z,1024.34
2024-05-09T04:11:58.640Z,1024.33
2024-05-09T04:12:58.503Z,1024.37
2024-05-09T04:13:58.519Z,1024.36
2024-05-09T04:14:58.485Z,1024.38
2024-05-09T04:15:58.464Z,1024.39
2024-05-09T04:16:58.488Z,1024.43
2024-05-09T04:17:58.660Z,1024.40
2024-05-09T04:18:58.492Z,1024.36
2024-05-09T04:19:58.460Z,1024.40
2024-05-09T04:20:58.428Z,1024.38
2024-05-09T04:21:58.412Z,1024.33
2024-05-09T04:22:58.383Z,1024.39
2024-05-09T04:23:58.366Z,1024.40
2024-05-09T04:24:58.351Z,1024.38
2024-05-09T04:25:58.413Z,1024.37
2024-05-09T04:26:58.361Z,1024.41
2024-05-09T04:27:58.366Z,1024.38
2024-05-09T04:28:58.379Z,1024.40
2024-05-09T04:29:58.319Z,1024.41
2024-05-09T04:30:58.299Z,1024.39
2024-05-09T04:31:58.389Z,1024.40
2024-05-09T04:32:58.370Z,1024.42
2024-05-09T04:33:58.453Z,1024.41
2024-05-09T04:34:58.274Z,1024.40
2024-05-09T04:35:58.257Z,1024.40
2024-05-09T04:36:58.225Z,1024.35
2024-05-09T04:37:58.269Z,1024.35
2024-05-09T04:38:58.201Z,1024.37
2024-05-09T04:39:58.202Z,1024.34
2024-05-09T04:40:58.294Z,1024.40
2024-05-09T04:41:58.173Z,1024.37
2024-05-09T04:42:58.165Z,1024.41
2024-05-09T04:43:58.202Z,1024.38
2024-05-09T04:44:58.823Z,1024.40
2024-05-09T04:45:58.130Z,1024.37
2024-05-09T04:46:58.151Z,1024.36
2024-05-09T04:47:58.568Z,1024.37
2024-05-09T04:48:58.198Z,1024.37
2024-05-09T04:49:58.152Z,1024.33
2024-05-09T04:50:58.122Z,1024.37
2024-05-09T04:51:58.065Z,1024.36
2024-05-09T04:52:58.126Z,1024.40
2024-05-09T04:53:58.050Z,1024.38
2024-05-09T04:54:59.020Z,1024.38
2024-05-09T04:55:58.092Z,1024.35
2024-05-09T04:56:58.002Z,1024.37
2024-05-09T04:57:58.010Z,1024.35
2024-05-09T04:58:58.029Z,1024.35
2024-05-09T04:59:57.981Z,1024.36
2024-05-09T05:00:58.053Z,1024.37
2024-05-09T05:01:58.105Z,1024.36
2024-05-09T05:02:58.040Z,1024.35
2024-05-09T05:03:58.111Z,1024.34
2024-05-09T05:04:58.020Z,1024.35
2024-05-09T05:05:58.116Z,1024.35
2024-05-09T05:07:01.274Z,1024.38
2024-05-09T05:07:57.946Z,1024.37
2024-05-09T05:08:57.884Z,1024.37
2024-05-09T05:09:57.867Z,1024.40
2024-05-09T05:10:57.980Z,1024.37
2024-05-09T05:11:57.917Z,1024.35
2024-05-09T05:12:57.840Z,1024.38
2024-05-09T05:13:57.907Z,1024.34
2024-05-09T05:14:57.810Z,1024.36
2024-05-09T05:15:58.473Z,1024.38
2024-05-09T05:16:57.839Z,1024.36
2024-05-09T05:17:57.957Z,1024.37
2024-05-09T05:18:57.784Z,1024.39
2024-05-09T05:19:57.848Z,1024.43
2024-05-09T05:20:57.872Z,1024.41
2024-05-09T05:21:57.751Z,1024.44
2024-05-09T05:22:57.755Z,1024.43
2024-05-09T05:23:57.719Z,1024.44
2024-05-09T05:24:57.701Z,1024.44
2024-05-09T05:25:57.751Z,1024.46
2024-05-09T05:26:57.687Z,1024.43
2024-05-09T05:27:57.680Z,1024.44
2024-05-09T05:28:57.670Z,1024.48
2024-05-09T05:29:57.648Z,1024.49
2024-05-09T05:30:57.641Z,1024.49
2024-05-09T05:31:57.845Z,1024.49
2024-05-09T05:32:57.654Z,1024.46
2024-05-09T05:33:57.637Z,1024.49
2024-05-09T05:34:57.604Z,1024.46
2024-05-09T05:35:57.580Z,1024.49
2024-05-09T05:36:57.586Z,1024.49
2024-05-09T05:37:57.648Z,1024.52
2024-05-09T05:38:57.622Z,1024.52
2024-05-09T05:39:57.552Z,1024.52
2024-05-09T05:40:57.599Z,1024.51
2024-05-09T05:41:57.547Z,1024.47
2024-05-09T05:42:57.514Z,1024.53
2024-05-09T05:43:57.575Z,1024.51
2024-05-09T05:44:57.482Z,1024.52
2024-05-09T05:45:57.496Z,1024.58
2024-05-09T05:46:57.480Z,1024.50
2024-05-09T05:47:57.824Z,1024.54
2024-05-09T05:48:57.531Z,1024.52
2024-05-09T05:49:57.448Z,1024.57
2024-05-09T05:50:58.584Z,1024.55
2024-05-09T05:51:57.422Z,1024.56
2024-05-09T05:52:57.439Z,1024.54
2024-05-09T05:53:57.389Z,1024.59
2024-05-09T05:54:57.387Z,1024.57
2024-05-09T05:55:57.452Z,1024.55
2024-05-09T05:56:57.351Z,1024.61
2024-05-09T05:57:57.347Z,1024.54
2024-05-09T05:58:57.360Z,1024.53
2024-05-09T05:59:57.333Z,1024.51
2024-05-09T06:00:57.339Z,1024.50
2024-05-09T06:01:57.370Z,1024.55
2024-05-09T06:02:57.316Z,1024.52
2024-05-09T06:03:57.368Z,1024.56
2024-05-09T06:04:57.402Z,1024.55
2024-05-09T06:05:57.485Z,1024.58
2024-05-09T06:06:57.240Z,1024.54
2024-05-09T06:07:57.315Z,1024.60
2024-05-09T06:08:57.255Z,1024.61
2024-05-09T06:09:57.214Z,1024.60
2024-05-09T06:10:57.276Z,1024.60
2024-05-09T06:11:57.277Z,1024.57
2024-05-09T06:12:57.178Z,1024.59
2024-05-09T06:13:57.182Z,1024.60
2024-05-09T06:14:57.163Z,1024.56
2024-05-09T06:15:57.150Z,1024.62
2024-05-09T06:16:58.287Z,1024.58
2024-05-09T06:17:57.462Z,1024.58
2024-05-09T06:18:57.304Z,1024.61
2024-05-09T06:19:57.133Z,1024.57
2024-05-09T06:20:57.136Z,1024.51
2024-05-09T06:21:57.089Z,1024.58
2024-05-09T06:22:57.129Z,1024.55
2024-05-09T06:23:57.072Z,1024.54
2024-05-09T06:24:57.045Z,1024.55
2024-05-09T06:25:57.076Z,1024.55
2024-05-09T06:26:57.034Z,1024.58
2024-05-09T06:27:57.044Z,1024.55
2024-05-09T06:28:57.034Z,1024.55
2024-05-09T06:29:56.993Z,1024.55
2024-05-09T06:30:56.988Z,1024.57
2024-05-09T06:31:59.932Z,1024.57
2024-05-09T06:32:57.068Z,1024.56
2024-05-09T06:33:57.058Z,1024.53
2024-05-09T06:34:56.967Z,1024.49
2024-05-09T06:35:56.926Z,1024.51
2024-05-09T06:36:56.933Z,1024.47
2024-05-09T06:37:56.957Z,1024.49
2024-05-09T06:38:56.897Z,1024.49
2024-05-09T06:39:56.879Z,1024.54
2024-05-09T06:40:56.897Z,1024.57
2024-05-09T06:41:56.872Z,1024.52
2024-05-09T06:42:56.861Z,1024.54
2024-05-09T06:43:56.873Z,1024.52
2024-05-09T06:44:56.832Z,1024.55
2024-05-09T06:45:56.935Z,1024.58
2024-05-09T06:46:59.350Z,1024.55
2024-05-09T06:47:56.880Z,1024.54
2024-05-09T06:48:57.018Z,1024.56
2024-05-09T06:49:56.782Z,1024.52
2024-05-09T06:50:56.818Z,1024.54
2024-05-09T06:51:56.766Z,1024.54
2024-05-09T06:52:56.775Z,1024.55
2024-05-09T06:53:56.730Z,1024.52
2024-05-09T06:54:56.733Z,1024.51
2024-05-09T06:55:56.795Z,1024.57
2024-05-09T06:56:56.704Z,1024.54
2024-05-09T06:57:56.682Z,1024.60
2024-05-09T06:58:56.738Z,1024.60
2024-05-09T06:59:56.724Z,1024.63
2024-05-09T07:00:56.736Z,1024.61
2024-05-09T07:01:56.691Z,1024.61
2024-05-09T07:02:56.885Z,1024.64
2024-05-09T07:03:56.772Z,1024.59
2024-05-09T07:04:56.862Z,1024.60
2024-05-09T07:05:56.697Z,1024.57
2024-05-09T07:06:56.600Z,1024.59
2024-05-09T07:07:56.655Z,1024.59
2024-05-09T07:08:56.575Z,1024.55
2024-05-09T07:09:56.570Z,1024.55
2024-05-09T07:10:56.637Z,1024.55
2024-05-09T07:11:56.719Z,1024.56
2024-05-09T07:12:56.530Z,1024.55
2024-05-09T07:13:56.588Z,1024.57
2024-05-09T07:14:56.524Z,1024.57
2024-05-09T07:15:56.489Z,1024.60
2024-05-09T07:16:56.569Z,1024.57
2024-05-09T07:17:56.938Z,1024.61
2024-05-09T07:18:56.695Z,1024.64
2024-05-09T07:19:56.478Z,1024.61
2024-05-09T07:20:56.451Z,1024.61
2024-05-09T07:21:56.419Z,1024.63
2024-05-09T07:22:56.444Z,1024.63
2024-05-09T07:23:56.440Z,1024.64
2024-05-09T07:24:56.393Z,1024.63
2024-05-09T07:25:56.387Z,1024.67
2024-05-09T07:26:56.377Z,1024.65
2024-05-09T07:27:56.373Z,1024.60
2024-05-09T07:28:56.431Z,1024.58
2024-05-09T07:29:56.339Z,1024.62
2024-05-09T07:30:56.332Z,1024.61
2024-05-09T07:31:56.359Z,1024.59
2024-05-09T07:32:56.426Z,1024.60
2024-05-09T07:33:56.347Z,1024.60
2024-05-09T07:34:56.398Z,1024.56
2024-05-09T07:35:56.270Z,1024.59
2024-05-09T07:36:56.297Z,1024.58
2024-05-09T07:37:56.308Z,1024.58
2024-05-09T07:38:56.244Z,1024.59
2024-05-09T07:39:56.232Z,1024.61
2024-05-09T07:40:56.263Z,1024.60
2024-05-09T07:41:56.234Z,1024.56
2024-05-09T07:42:56.198Z,1024.61
2024-05-09T07:43:56.203Z,1024.58
2024-05-09T07:44:58.726Z,1024.58
2024-05-09T07:45:58.371Z,1024.62
2024-05-09T07:48:14.004Z,1024.62
2024-05-09T07:51:32.675Z,1024.59
2024-05-09T07:53:37.000Z,1024.61
2024-05-09T07:53:51.339Z,1024.65
2024-05-09T07:54:24.019Z,1024.64
2024-05-09T07:55:23.974Z,1024.57
2024-05-09T07:56:24.677Z,1024.61
2024-05-09T07:57:23.821Z,1024.59
2024-05-09T07:58:23.803Z,1024.62
2024-05-09T07:59:23.774Z,1024.59
2024-05-09T08:00:30.824Z,1024.59
2024-05-09T08:01:23.893Z,1024.58
2024-05-09T08:02:23.904Z,1024.58
2024-05-09T08:03:24.227Z,1024.61
2024-05-09T08:04:26.577Z,1024.60
2024-05-09T08:05:23.811Z,1024.67
2024-05-09T08:06:23.708Z,1024.61
2024-05-09T08:07:23.729Z,1024.64
2024-05-09T08:08:23.705Z,1024.59
2024-05-09T08:09:23.668Z,1024.59
2024-05-09T08:10:28.545Z,1024.61
2024-05-09T08:11:23.706Z,1024.57
2024-05-09T08:12:23.641Z,1024.58
2024-05-09T08:13:23.660Z,1024.60
2024-05-09T08:14:23.623Z,1024.59
2024-05-09T08:15:23.617Z,1024.57
2024-05-09T08:16:23.866Z,1024.59
2024-05-09T08:17:23.696Z,1024.54
2024-05-09T08:18:23.726Z,1024.54
2024-05-09T08:19:23.593Z,1024.57
2024-05-09T08:20:30.937Z,1024.52
2024-05-09T08:21:23.551Z,1024.54
2024-05-09T08:22:23.530Z,1024.53
2024-05-09T08:23:23.528Z,1024.53
2024-05-09T08:24:23.531Z,1024.50
2024-05-09T08:25:23.515Z,1024.51
2024-05-09T08:26:23.487Z,1024.52
2024-05-09T08:27:23.486Z,1024.49
2024-05-09T08:28:23.525Z,1024.48
2024-05-09T08:29:23.503Z,1024.45
2024-05-09T08:30:30.106Z,1024.48
2024-05-09T08:31:23.562Z,1024.49
2024-05-09T08:32:23.528Z,1024.49
2024-05-09T08:33:23.551Z,1024.50
2024-05-09T08:34:23.538Z,1024.46
2024-05-09T08:35:23.402Z,1024.46
2024-05-09T08:36:23.378Z,1024.45
2024-05-09T08:37:26.207Z,1024.42
2024-05-09T08:38:23.366Z,1024.44
2024-05-09T08:39:23.342Z,1024.46
2024-05-09T08:40:30.740Z,1024.47
2024-05-09T08:41:23.333Z,1024.46
2024-05-09T08:42:23.327Z,1024.44
2024-05-09T08:43:23.595Z,1024.45
2024-05-09T08:44:23.301Z,1024.43
2024-05-09T08:45:23.283Z,1024.41
2024-05-09T08:46:23.377Z,1024.43
2024-05-09T08:47:23.383Z,1024.41
2024-05-09T08:48:23.520Z,1024.41
2024-05-09T08:49:23.299Z,1024.40
2024-05-09T08:50:32.060Z,1024.40
2024-05-09T08:51:23.215Z,1024.37
2024-05-09T08:52:23.218Z,1024.38
2024-05-09T08:53:23.191Z,1024.38
2024-05-09T08:54:23.213Z,1024.41
2024-05-09T08:55:23.177Z,1024.43
2024-05-09T08:56:23.185Z,1024.43
2024-05-09T08:57:23.175Z,1024.46
2024-05-09T08:58:23.152Z,1024.43
2024-05-09T08:59:23.120Z,1024.46
2024-05-09T09:00:33.434Z,1024.43
2024-05-09T09:01:23.173Z,1024.47
2024-05-09T09:02:23.498Z,1024.46
2024-05-09T09:03:23.102Z,1024.42
2024-05-09T09:04:23.199Z,1024.43
2024-05-09T09:05:23.228Z,1024.46
2024-05-09T09:06:23.065Z,1024.44
2024-05-09T09:07:23.169Z,1024.43
2024-05-09T09:08:23.036Z,1024.49
2024-05-09T09:09:23.025Z,1024.47
2024-05-09T09:10:29.711Z,1024.49
2024-05-09T09:11:23.026Z,1024.44
2024-05-09T09:12:22.985Z,1024.42
2024-05-09T09:13:23.040Z,1024.43
2024-05-09T09:14:22.985Z,1024.38
2024-05-09T09:15:22.957Z,1024.38
2024-05-09T09:16:23.157Z,1024.38
2024-05-09T09:17:23.123Z,1024.36
2024-05-09T09:18:22.963Z,1024.42
2024-05-09T09:19:23.293Z,1024.39
2024-05-09T09:20:28.704Z,1024.42
2024-05-09T09:21:22.907Z,1024.38
2024-05-09T09:22:22.894Z,1024.39
2024-05-09T09:23:22.907Z,1024.36
2024-05-09T09:24:22.869Z,1024.39
2024-05-09T09:25:22.848Z,1024.42
2024-05-09T09:26:22.838Z,1024.38
2024-05-09T09:27:22.821Z,1024.40
2024-05-09T09:28:22.946Z,1024.39
2024-05-09T09:29:22.806Z,1024.36
2024-05-09T09:30:34.042Z,1024.44
2024-05-09T09:31:22.866Z,1024.43
2024-05-09T09:32:22.807Z,1024.37
2024-05-09T09:33:22.970Z,1024.39
2024-05-09T09:34:22.927Z,1024.37
2024-05-09T09:35:22.778Z,1024.40
2024-05-09T09:36:22.736Z,1024.32
2024-05-09T09:37:22.784Z,1024.34
2024-05-09T09:38:22.852Z,1024.35
2024-05-09T09:39:22.749Z,1024.34
2024-05-09T09:40:30.979Z,1024.35
2024-05-09T09:41:22.740Z,1024.33
2024-05-09T09:42:22.663Z,1024.31
2024-05-09T09:43:23.072Z,1024.34
2024-05-09T09:44:22.661Z,1024.35
2024-05-09T09:45:22.801Z,1024.30
2024-05-09T09:46:22.659Z,1024.30
2024-05-09T09:47:22.650Z,1024.29
2024-05-09T09:48:23.220Z,1024.34
2024-05-09T09:49:22.636Z,1024.30
2024-05-09T09:50:27.955Z,1024.33
2024-05-09T09:51:22.567Z,1024.29
2024-05-09T09:52:22.645Z,1024.18
2024-05-09T09:53:22.613Z,1024.27
2024-05-09T09:54:22.532Z,1024.28
2024-05-09T09:55:22.747Z,1024.32
2024-05-09T09:56:22.513Z,1024.28
2024-05-09T09:57:22.514Z,1024.28
2024-05-09T09:58:22.556Z,1024.24
2024-05-09T09:59:22.483Z,1024.27
2024-05-09T10:00:27.410Z,1024.30
2024-05-09T10:01:22.572Z,1024.23
2024-05-09T10:02:22.713Z,1024.25
2024-05-09T10:03:22.576Z,1024.25
2024-05-09T10:04:22.535Z,1024.29
2024-05-09T10:05:22.616Z,1024.34
2024-05-09T10:06:22.433Z,1024.24
2024-05-09T10:07:22.482Z,1024.28
2024-05-09T10:08:22.379Z,1024.29
2024-05-09T10:09:22.368Z,1024.29
2024-05-09T10:10:29.918Z,1024.24
2024-05-09T10:11:22.475Z,1024.33
2024-05-09T10:12:22.421Z,1024.29
2024-05-09T10:13:22.462Z,1024.33
2024-05-09T10:14:22.348Z,1024.23
2024-05-09T10:15:22.305Z,1024.20
2024-05-09T10:16:22.445Z,1024.23
2024-05-09T10:17:22.342Z,1024.20
2024-05-09T10:18:22.317Z,1024.20
2024-05-09T10:19:22.326Z,1024.19
2024-05-09T10:20:27.908Z,1024.19
2024-05-09T10:21:22.259Z,1024.20
2024-05-09T10:22:22.262Z,1024.18
2024-05-09T10:23:22.224Z,1024.18
2024-05-09T10:24:22.223Z,1024.18
2024-05-09T10:25:22.478Z,1024.14
2024-05-09T10:26:22.217Z,1024.14
2024-05-09T10:27:22.203Z,1024.11
2024-05-09T10:28:22.278Z,1024.14
2024-05-09T10:29:22.162Z,1024.14
2024-05-09T10:30:29.710Z,1024.13
2024-05-09T10:31:22.170Z,1024.15
2024-05-09T10:32:22.285Z,1024.11
2024-05-09T10:33:22.172Z,1024.13
2024-05-09T10:34:22.409Z,1024.09
2024-05-09T10:35:22.110Z,1024.08
2024-05-09T10:36:22.123Z,1024.09
2024-05-09T10:37:22.227Z,1024.08
2024-05-09T10:38:22.078Z,1024.10
2024-05-09T10:39:22.068Z,1024.06
2024-05-09T10:40:26.617Z,1024.02
2024-05-09T10:41:22.079Z,1023.96
2024-05-09T10:42:22.031Z,1023.98
2024-05-09T10:43:22.155Z,1023.95
2024-05-09T10:44:22.022Z,1023.94
2024-05-09T10:45:21.994Z,1023.94
2024-05-09T10:46:22.099Z,1023.93
2024-05-09T10:47:22.050Z,1023.89
2024-05-09T10:48:22.031Z,1023.90
2024-05-09T10:49:22.087Z,1023.90
2024-05-09T10:50:25.644Z,1023.89
2024-05-09T10:51:21.979Z,1023.90
2024-05-09T10:52:21.963Z,1023.89
2024-05-09T10:53:21.938Z,1023.92
2024-05-09T10:54:21.947Z,1023.84
2024-05-09T10:55:22.243Z,1023.84
2024-05-09T10:56:21.887Z,1023.83
2024-05-09T10:57:21.871Z,1023.81
2024-05-09T10:58:21.909Z,1023.80
2024-05-09T10:59:21.856Z,1023.78
2024-05-09T11:00:27.787Z,1023.83
2024-05-09T11:01:21.902Z,1023.82
2024-05-09T11:02:21.952Z,1023.82
2024-05-09T11:03:21.869Z,1023.82
2024-05-09T11:04:21.938Z,1023.85
2024-05-09T11:05:21.993Z,1023.83
2024-05-09T11:06:21.776Z,1023.81
2024-05-09T11:07:21.862Z,1023.70
2024-05-09T11:08:21.764Z,1023.69
2024-05-09T11:09:21.748Z,1023.67
2024-05-09T11:10:27.752Z,1023.68
2024-05-09T11:11:21.809Z,1023.64
2024-05-09T11:12:23.641Z,1023.61
2024-05-09T11:13:21.756Z,1023.58
2024-05-09T11:14:21.685Z,1023.67
2024-05-09T11:15:21.678Z,1023.60
2024-05-09T11:16:21.898Z,1023.57
2024-05-09T11:17:21.732Z,1023.54
2024-05-09T11:18:24.764Z,1023.49
2024-05-09T11:19:21.777Z,1023.50
2024-05-09T11:20:29.096Z,1023.52
2024-05-09T11:21:21.634Z,1023.48
2024-05-09T11:22:21.726Z,1023.54
2024-05-09T11:23:21.597Z,1023.46
2024-05-09T11:24:21.592Z,1023.50
2024-05-09T11:25:21.615Z,1023.43
2024-05-09T11:26:21.664Z,1023.43
2024-05-09T11:27:21.567Z,1023.45
2024-05-09T11:28:21.570Z,1023.47
2024-05-09T11:29:21.530Z,1023.44
2024-05-09T11:30:29.519Z,1023.40
2024-05-09T11:31:21.891Z,1023.38
2024-05-09T11:32:21.525Z,1023.41
2024-05-09T11:33:21.513Z,1023.38
2024-05-09T11:34:21.532Z,1023.36
2024-05-09T11:35:21.504Z,1023.30
2024-05-09T11:36:21.466Z,1023.32
2024-05-09T11:37:21.567Z,1023.29
2024-05-09T11:38:21.431Z,1023.31
2024-05-09T11:39:21.427Z,1023.23
2024-05-09T11:40:25.678Z,1023.26
2024-05-09T11:41:21.409Z,1023.26
2024-05-09T11:42:21.400Z,1023.24
2024-05-09T11:43:21.467Z,1023.28
2024-05-09T11:44:21.374Z,1023.23
2024-05-09T11:45:21.391Z,1023.19
2024-05-09T11:46:21.540Z,1023.27
2024-05-09T11:47:21.408Z,1023.27
2024-05-09T11:48:21.543Z,1023.27
2024-05-09T11:49:23.877Z,1023.28
2024-05-09T11:50:27.286Z,1023.26
2024-05-09T11:51:21.314Z,1023.23
2024-05-09T11:52:21.334Z,1023.25
2024-05-09T11:53:21.311Z,1023.22
2024-05-09T11:54:21.294Z,1023.23
2024-05-09T11:55:23.205Z,1023.20
2024-05-09T11:56:21.251Z,1023.13
2024-05-09T11:57:21.231Z,1023.17
2024-05-09T11:58:21.436Z,1023.18
2024-05-09T11:59:21.236Z,1023.20
2024-05-09T12:00:29.472Z,1023.13
2024-05-09T12:01:22.136Z,1023.09
2024-05-09T12:02:21.244Z,1023.12
2024-05-09T12:03:21.254Z,1023.08
2024-05-09T12:04:21.334Z,1023.10
2024-05-09T12:05:21.381Z,1023.05
2024-05-09T12:06:21.140Z,1023.09
2024-05-09T12:07:21.214Z,1023.08
2024-05-09T12:08:21.136Z,1023.12